Time;durP1;ratioP1;P1;durP2;ratioP2;P2;SDS_P1;SDS_P2;PMS_P1;PMS_P2;Temp;Humidity;BMP_temperature;BMP_pressure;BME280_temperature;BME280_humidity;BME280_pressure;Samples;Min_cycle;Max_cycle;Signal;HPM_P1;HPM_P2
2022/02/23 00:00:41;;;;;;;6.20;1.58;;;6.30;98.00;;;;;;5034452;28;20088;-68
2022/02/23 00:03:07;;;;;;;3.72;1.52;;;6.30;98.00;;;;;;5036375;28;20117;-68
2022/02/23 00:05:33;;;;;;;4.05;1.20;;;6.40;98.00;;;;;;5035766;28;20120;-68
2022/02/23 00:07:59;;;;;;;4.15;1.42;;;6.40;98.00;;;;;;5036161;28;20032;-68
2022/02/23 00:10:25;;;;;;;5.40;1.55;;;6.40;98.00;;;;;;5035160;28;20063;-68
2022/02/23 00:12:50;;;;;;;6.60;1.50;;;6.50;98.00;;;;;;5036708;28;20041;-68
2022/02/23 00:15:19;;;;;;;4.75;1.60;;;6.50;98.00;;;;;;5034954;28;20029;-68
2022/02/23 00:17:45;;;;;;;4.95;1.50;;;6.50;98.00;;;;;;5039652;28;20013;-68
2022/02/23 00:20:12;;;;;;;6.20;1.40;;;6.40;98.00;;;;;;5043150;28;20021;-68
2022/02/23 00:22:38;;;;;;;8.35;1.45;;;6.40;98.00;;;;;;5035424;28;20038;-68
2022/02/23 00:25:05;;;;;;;6.88;1.60;;;6.30;98.00;;;;;;5035355;28;20054;-67
2022/02/23 00:27:30;;;;;;;3.80;1.50;;;6.20;98.00;;;;;;5035336;28;20440;-67
2022/02/23 00:29:56;;;;;;;6.78;1.67;;;6.10;98.00;;;;;;5035038;28;20025;-67
2022/02/23 00:32:22;;;;;;;6.95;2.00;;;6.10;98.00;;;;;;5036119;28;20291;-67
2022/02/23 00:34:48;;;;;;;3.15;1.30;;;6.10;98.00;;;;;;5035458;28;20474;-68
2022/02/23 00:37:16;;;;;;;9.32;1.58;;;6.10;98.00;;;;;;5035491;28;20113;-68
2022/02/23 00:39:43;;;;;;;4.57;1.33;;;6.20;98.00;;;;;;5036052;28;20022;-68
2022/02/23 00:42:09;;;;;;;3.88;1.35;;;6.30;98.00;;;;;;5038869;28;20299;-68
2022/02/23 00:44:34;;;;;;;4.95;1.40;;;6.40;98.00;;;;;;5034685;28;20052;-68
2022/02/23 00:47:01;;;;;;;4.30;1.30;;;6.40;98.00;;;;;;5035390;28;20029;-68
2022/02/23 00:49:28;;;;;;;5.35;1.50;;;6.40;98.00;;;;;;5037057;28;20428;-69
2022/02/23 00:51:57;;;;;;;4.93;1.50;;;6.40;98.00;;;;;;5034275;28;20051;-69
2022/02/23 00:54:22;;;;;;;5.53;1.60;;;6.40;98.00;;;;;;5035667;28;20040;-68
2022/02/23 00:56:48;;;;;;;4.13;1.55;;;6.40;98.00;;;;;;5039783;28;20318;-68
2022/02/23 00:59:15;;;;;;;5.28;1.52;;;6.40;98.00;;;;;;5034182;28;20029;-68
2022/02/23 01:01:41;;;;;;;3.22;1.23;;;6.40;98.00;;;;;;5033771;28;20371;-68
2022/02/23 01:04:08;;;;;;;4.93;1.50;;;6.50;98.00;;;;;;5016505;28;20121;-68
2022/02/23 01:06:35;;;;;;;2.35;1.10;;;6.40;98.00;;;;;;5034821;28;20018;-68
2022/02/23 01:09:01;;;;;;;3.88;1.40;;;6.40;98.00;;;;;;5035336;28;20119;-68
2022/02/23 01:11:34;;;;;;;5.57;1.40;;;6.40;98.00;;;;;;5035314;28;20291;-68
2022/02/23 01:14:00;;;;;;;7.03;1.77;;;6.40;98.00;;;;;;5034030;28;20041;-68
2022/02/23 01:16:26;;;;;;;4.97;1.50;;;6.30;98.00;;;;;;5034974;28;20026;-68
2022/02/23 01:18:51;;;;;;;5.35;1.50;;;6.20;98.00;;;;;;5035517;28;20032;-68
2022/02/23 01:21:17;;;;;;;8.57;1.95;;;6.10;98.00;;;;;;5034751;28;20037;-68
2022/02/23 01:23:43;;;;;;;6.50;1.92;;;6.20;98.00;;;;;;5034203;28;20025;-68
2022/02/23 01:26:09;;;;;;;3.95;1.50;;;6.00;98.00;;;;;;5039485;28;20079;-69
2022/02/23 01:28:34;;;;;;;4.78;1.40;;;6.00;97.90;;;;;;5036720;28;20029;-69
2022/02/23 01:31:00;;;;;;;6.50;1.42;;;5.90;97.40;;;;;;5035019;28;20334;-67
2022/02/23 01:33:26;;;;;;;5.88;1.50;;;5.90;97.40;;;;;;5034324;28;20032;-68
2022/02/23 01:35:53;;;;;;;4.85;1.83;;;5.90;97.30;;;;;;5034215;28;20028;-68
2022/02/23 01:38:18;;;;;;;7.30;2.25;;;5.80;96.70;;;;;;5035151;28;20448;-68
2022/02/23 01:40:44;;;;;;;5.45;1.77;;;5.80;96.30;;;;;;5034976;28;20037;-68
2022/02/23 01:43:10;;;;;;;3.88;1.52;;;5.70;96.00;;;;;;5030905;28;20422;-68
2022/02/23 01:45:36;;;;;;;6.30;1.80;;;5.70;95.00;;;;;;5035176;28;20476;-67
2022/02/23 01:48:03;;;;;;;5.63;1.50;;;5.70;95.20;;;;;;5033868;28;20030;-69
2022/02/23 01:50:29;;;;;;;5.40;1.60;;;5.60;94.90;;;;;;5034617;28;20411;-68
2022/02/23 01:52:55;;;;;;;5.22;1.65;;;5.70;95.10;;;;;;5034073;28;20029;-66
2022/02/23 01:55:21;;;;;;;6.32;2.13;;;5.60;95.10;;;;;;5034044;28;20048;-68
2022/02/23 01:57:47;;;;;;;5.70;1.88;;;5.60;94.20;;;;;;5035829;28;20026;-69
2022/02/23 02:00:15;;;;;;;6.15;1.80;;;5.60;93.90;;;;;;5032767;28;20021;-68
2022/02/23 02:02:43;;;;;;;5.10;1.48;;;5.60;94.00;;;;;;5042366;28;20442;-68
2022/02/23 02:05:08;;;;;;;5.15;1.50;;;5.60;93.90;;;;;;5035118;28;20034;-68
2022/02/23 02:07:34;;;;;;;5.40;1.80;;;5.60;93.50;;;;;;5033610;28;20036;-68
2022/02/23 02:10:00;;;;;;;8.80;2.55;;;5.60;93.30;;;;;;5035074;28;20108;-68
2022/02/23 02:12:26;;;;;;;5.32;2.10;;;5.50;93.00;;;;;;5033569;28;20164;-68
2022/02/23 02:14:52;;;;;;;5.72;1.92;;;5.50;92.70;;;;;;5033699;28;20022;-69
2022/02/23 02:17:17;;;;;;;8.43;2.10;;;5.50;92.00;;;;;;5043316;28;20325;-68
2022/02/23 02:19:44;;;;;;;5.88;2.00;;;5.50;91.90;;;;;;5036010;28;20025;-68
2022/02/23 02:22:10;;;;;;;6.90;1.95;;;5.50;91.60;;;;;;5034346;28;20118;-68
2022/02/23 02:24:39;;;;;;;6.22;1.85;;;5.40;91.60;;;;;;5034210;28;20033;-68
2022/02/23 02:27:11;;;;;;;5.65;1.92;;;5.40;91.30;;;;;;5034139;28;20343;-68
2022/02/23 02:29:38;;;;;;;6.18;2.20;;;5.40;91.40;;;;;;5032911;28;20037;-69
2022/02/23 02:32:04;;;;;;;6.93;1.77;;;5.40;91.00;;;;;;5034218;28;20044;-67
2022/02/23 02:34:30;;;;;;;7.60;2.00;;;5.40;90.90;;;;;;5037731;28;20052;-68
2022/02/23 02:36:59;;;;;;;8.77;2.00;;;5.40;90.50;;;;;;5036873;28;20017;-67
2022/02/23 02:39:25;;;;;;;6.97;2.10;;;5.30;90.00;;;;;;5037578;28;20025;-68
2022/02/23 02:41:52;;;;;;;5.43;2.00;;;5.30;89.80;;;;;;5037252;28;20044;-68
2022/02/23 02:44:18;;;;;;;8.65;3.15;;;5.30;89.50;;;;;;5036501;28;20025;-68
2022/02/23 02:46:45;;;;;;;5.55;1.98;;;5.30;89.40;;;;;;5037408;28;20108;-67
2022/02/23 02:49:11;;;;;;;7.00;1.70;;;5.30;89.00;;;;;;5036593;28;20033;-69
2022/02/23 02:51:37;;;;;;;5.13;2.00;;;5.30;88.50;;;;;;5037673;28;20026;-68
2022/02/23 02:54:04;;;;;;;6.50;1.92;;;5.30;88.40;;;;;;5036858;28;20034;-68
2022/02/23 02:56:30;;;;;;;5.32;1.70;;;5.30;87.90;;;;;;5037391;28;20025;-67
2022/02/23 02:58:59;;;;;;;4.85;1.90;;;5.30;87.50;;;;;;5035796;28;20338;-68
2022/02/23 03:01:27;;;;;;;6.75;2.10;;;5.30;87.40;;;;;;5036547;28;20075;-68
2022/02/23 03:03:53;;;;;;;9.32;2.85;;;5.40;87.10;;;;;;5037836;28;20338;-68
2022/02/23 03:06:20;;;;;;;6.97;2.20;;;5.40;87.30;;;;;;5037282;28;20025;-68
2022/02/23 03:08:47;;;;;;;11.43;2.45;;;5.40;86.90;;;;;;5037568;28;20394;-68
2022/02/23 03:11:13;;;;;;;7.32;2.38;;;5.40;86.60;;;;;;5037150;28;20421;-68
2022/02/23 03:13:40;;;;;;;7.20;1.80;;;5.40;86.10;;;;;;5035635;28;20467;-68
2022/02/23 03:16:07;;;;;;;4.38;1.50;;;5.10;91.20;;;;;;5037152;28;20052;-69
2022/02/23 03:18:33;;;;;;;5.50;1.90;;;4.70;90.50;;;;;;5037123;28;20108;-69
2022/02/23 03:21:02;;;;;;;7.95;2.45;;;4.30;93.80;;;;;;5036466;28;20109;-69
2022/02/23 03:23:28;;;;;;;6.40;2.53;;;3.80;93.80;;;;;;5037275;28;20373;-68
2022/02/23 03:25:54;;;;;;;6.53;2.53;;;3.60;93.30;;;;;;5034406;28;20049;-69
2022/02/23 03:28:20;;;;;;;10.05;2.95;;;3.30;93.90;;;;;;5034881;28;20124;-69
2022/02/23 03:30:46;;;;;;;8.32;2.58;;;3.10;93.10;;;;;;5033071;28;20052;-70
2022/02/23 03:33:12;;;;;;;6.70;2.20;;;2.90;92.70;;;;;;5046995;28;20017;-70
2022/02/23 03:35:39;;;;;;;10.15;2.38;;;2.90;92.40;;;;;;5034503;28;20037;-70
2022/02/23 03:38:06;;;;;;;7.30;2.50;;;2.80;91.50;;;;;;5036614;28;20136;-69
2022/02/23 03:40:32;;;;;;;5.80;1.52;;;2.90;91.10;;;;;;5035103;28;20041;-70
2022/02/23 03:42:59;;;;;;;13.05;2.45;;;2.90;90.90;;;;;;5036466;28;20028;-70
2022/02/23 03:45:24;;;;;;;10.40;2.20;;;2.90;91.10;;;;;;5033540;28;20026;-69
2022/02/23 03:47:50;;;;;;;16.95;4.40;;;2.90;90.90;;;;;;5038329;28;20306;-69
2022/02/23 03:50:16;;;;;;;13.23;2.90;;;2.80;91.50;;;;;;5034253;28;20022;-69
2022/02/23 03:52:42;;;;;;;12.13;2.20;;;2.90;91.00;;;;;;5035970;28;20028;-69
2022/02/23 03:55:09;;;;;;;13.15;2.13;;;2.90;92.20;;;;;;5036266;28;20029;-69
2022/02/23 03:57:38;;;;;;;15.55;3.10;;;2.90;92.40;;;;;;5036982;28;20022;-69
2022/02/23 04:00:08;;;;;;;8.50;1.77;;;2.90;91.60;;;;;;5034914;28;20399;-69
2022/02/23 04:02:34;;;;;;;7.80;2.17;;;3.00;91.50;;;;;;5030686;28;20029;-70
2022/02/23 04:04:59;;;;;;;10.48;2.20;;;3.00;92.00;;;;;;5035646;28;20037;-68
2022/02/23 04:07:25;;;;;;;5.38;1.67;;;3.00;91.00;;;;;;5035756;28;20021;-70
2022/02/23 04:09:51;;;;;;;12.07;3.20;;;3.10;91.30;;;;;;5042638;28;20056;-69
2022/02/23 04:12:17;;;;;;;13.05;2.53;;;3.10;91.40;;;;;;5035840;28;20457;-69
2022/02/23 04:14:44;;;;;;;11.88;2.30;;;3.10;92.20;;;;;;5034884;28;20029;-69
2022/02/23 04:17:10;;;;;;;7.10;2.15;;;3.00;91.70;;;;;;5026335;28;20395;-68
2022/02/23 04:19:36;;;;;;;12.95;3.55;;;3.10;90.60;;;;;;5031772;28;20040;-69
2022/02/23 04:22:06;;;;;;;11.27;2.53;;;3.10;91.70;;;;;;5033383;28;20025;-68
2022/02/23 04:24:32;;;;;;;9.73;3.05;;;3.00;91.40;;;;;;5037081;28;20445;-69
2022/02/23 04:26:59;;;;;;;8.30;3.00;;;3.00;91.40;;;;;;5035074;28;20099;-68
2022/02/23 04:29:27;;;;;;;13.45;2.47;;;3.00;90.70;;;;;;5035228;28;20440;-69
2022/02/23 04:31:56;;;;;;;10.18;2.70;;;3.00;90.50;;;;;;5038119;28;20029;-69
2022/02/23 04:34:25;;;;;;;8.73;1.88;;;3.00;90.60;;;;;;5040709;28;20075;-69
2022/02/23 04:36:51;;;;;;;11.35;3.40;;;3.00;90.20;;;;;;5036179;28;20108;-70
2022/02/23 04:39:17;;;;;;;9.15;2.47;;;3.00;90.50;;;;;;5035435;28;20366;-68
2022/02/23 04:41:45;;;;;;;7.97;2.10;;;3.10;89.60;;;;;;5034158;28;20373;-68
2022/02/23 04:44:11;;;;;;;15.43;2.28;;;3.10;90.70;;;;;;5018930;28;20072;-69
2022/02/23 04:46:37;;;;;;;15.48;2.70;;;3.10;91.20;;;;;;5034838;28;20029;-69
2022/02/23 04:49:04;;;;;;;10.50;2.55;;;3.10;91.40;;;;;;5036181;28;20099;-68
2022/02/23 04:51:30;;;;;;;12.80;2.80;;;3.10;90.70;;;;;;5034964;28;20026;-68
2022/02/23 04:54:00;;;;;;;10.32;2.42;;;3.10;91.10;;;;;;5033648;28;20039;-69
2022/02/23 04:56:26;;;;;;;9.95;2.47;;;3.10;90.50;;;;;;5034866;28;20661;-68
2022/02/23 04:58:52;;;;;;;12.00;2.38;;;3.10;90.40;;;;;;5033676;28;20025;-70
2022/02/23 05:01:17;;;;;;;13.27;2.92;;;3.10;90.20;;;;;;5033216;28;20037;-69
2022/02/23 05:03:44;;;;;;;9.32;2.60;;;3.20;89.90;;;;;;5034657;28;20052;-68
2022/02/23 05:06:09;;;;;;;12.10;3.50;;;3.10;89.70;;;;;;5035085;28;20402;-68
2022/02/23 05:08:35;;;;;;;7.88;2.47;;;3.10;89.00;;;;;;5033653;28;20044;-68
2022/02/23 05:11:01;;;;;;;13.00;2.50;;;3.20;88.40;;;;;;5035410;28;20029;-69
2022/02/23 05:13:29;;;;;;;11.15;2.17;;;3.20;88.40;;;;;;5034163;28;20124;-69
2022/02/23 05:15:56;;;;;;;18.20;3.72;;;3.20;89.10;;;;;;5038157;28;20021;-68
2022/02/23 05:18:23;;;;;;;11.32;2.83;;;3.10;89.20;;;;;;5043800;28;20030;-68
2022/02/23 05:20:48;;;;;;;15.18;4.30;;;3.10;89.30;;;;;;5027058;28;20032;-69
2022/02/23 05:23:15;;;;;;;15.30;3.67;;;3.10;89.30;;;;;;5026478;28;20025;-69
2022/02/23 05:25:41;;;;;;;11.70;4.32;;;3.10;89.30;;;;;;5034742;28;20120;-68
2022/02/23 05:28:06;;;;;;;14.68;2.95;;;3.00;89.00;;;;;;5036635;28;20531;-68
2022/02/23 05:30:32;;;;;;;7.72;2.15;;;3.00;88.90;;;;;;5031437;28;20025;-69
2022/02/23 05:32:58;;;;;;;11.63;3.20;;;3.00;88.70;;;;;;5032576;28;20410;-69
2022/02/23 05:35:23;;;;;;;10.73;2.67;;;2.90;88.70;;;;;;5033374;28;20029;-69
2022/02/23 05:37:49;;;;;;;11.13;2.35;;;2.80;89.40;;;;;;5035654;28;20018;-69
2022/02/23 05:40:20;;;;;;;10.77;2.88;;;2.60;89.30;;;;;;5039702;28;20448;-69
2022/02/23 05:42:46;;;;;;;9.52;2.95;;;2.50;89.80;;;;;;5030954;28;20025;-68
2022/02/23 05:45:12;;;;;;;25.10;9.50;;;2.40;89.60;;;;;;5033903;28;20134;-68
2022/02/23 05:47:37;;;;;;;25.13;10.10;;;2.30;89.30;;;;;;5042104;28;20035;-68
2022/02/23 05:50:05;;;;;;;21.17;5.75;;;2.20;89.00;;;;;;5043571;28;20484;-67
2022/02/23 05:52:31;;;;;;;16.05;4.55;;;2.20;88.20;;;;;;5035088;28;20037;-68
2022/02/23 05:54:56;;;;;;;16.05;3.88;;;2.20;88.10;;;;;;5033843;28;20060;-68
2022/02/23 05:57:22;;;;;;;16.02;4.00;;;2.10;87.80;;;;;;5034108;28;20017;-68
2022/02/23 05:59:48;;;;;;;12.75;5.25;;;2.10;87.30;;;;;;5041437;28;20043;-68
2022/02/23 06:02:15;;;;;;;9.35;4.00;;;2.10;87.50;;;;;;5033362;28;20026;-68
2022/02/23 06:04:41;;;;;;;19.77;7.00;;;2.00;87.60;;;;;;5034270;28;20064;-68
2022/02/23 06:07:06;;;;;;;15.55;3.55;;;1.90;87.50;;;;;;5034270;28;20033;-68
2022/02/23 06:09:33;;;;;;;16.73;4.00;;;1.80;87.50;;;;;;5037874;28;20061;-67
2022/02/23 06:11:59;;;;;;;18.70;5.30;;;1.70;87.10;;;;;;5038351;28;20036;-67
2022/02/23 06:14:25;;;;;;;24.10;8.65;;;1.70;86.90;;;;;;5031380;28;20037;-68
2022/02/23 06:16:51;;;;;;;25.77;8.43;;;1.70;86.70;;;;;;5038492;28;20114;-68
2022/02/23 06:19:17;;;;;;;19.27;5.90;;;1.60;86.70;;;;;;5038692;28;20037;-67
2022/02/23 06:21:42;;;;;;;17.60;4.63;;;1.60;86.60;;;;;;5037628;28;20029;-68
2022/02/23 06:24:08;;;;;;;19.90;5.50;;;1.60;86.90;;;;;;5038625;28;20029;-67
2022/02/23 06:26:34;;;;;;;22.52;6.57;;;1.50;86.20;;;;;;5038131;28;20083;-69
2022/02/23 06:29:00;;;;;;;17.48;5.07;;;1.50;86.40;;;;;;5036618;28;20071;-68
2022/02/23 06:31:26;;;;;;;23.27;5.55;;;1.50;85.80;;;;;;5035962;28;20036;-69
2022/02/23 06:33:51;;;;;;;19.88;5.60;;;1.40;86.00;;;;;;5036120;28;20041;-69
2022/02/23 06:36:18;;;;;;;38.00;17.25;;;1.40;85.90;;;;;;5037026;28;20029;-69
2022/02/23 06:38:44;;;;;;;26.40;9.50;;;1.40;85.70;;;;;;5033293;28;20032;-68
2022/02/23 06:41:13;;;;;;;24.25;7.35;;;1.40;85.60;;;;;;5037382;28;20045;-68
2022/02/23 06:43:40;;;;;;;18.67;6.70;;;1.40;85.50;;;;;;5027813;28;20026;-68
2022/02/23 06:46:06;;;;;;;18.08;5.68;;;1.30;85.60;;;;;;5035643;28;20032;-68
2022/02/23 06:48:32;;;;;;;22.85;6.38;;;1.40;85.00;;;;;;5037604;28;20021;-67
2022/02/23 06:51:01;;;;;;;22.58;6.85;;;1.40;85.20;;;;;;5038143;28;20080;-68
2022/02/23 06:53:27;;;;;;;13.98;5.45;;;1.40;84.90;;;;;;5037289;28;20063;-69
2022/02/23 06:55:52;;;;;;;42.13;20.75;;;1.40;85.20;;;;;;5034992;28;20033;-69
2022/02/23 06:58:19;;;;;;;23.95;11.50;;;1.40;85.30;;;;;;5035384;28;20406;-67
2022/02/23 07:00:45;;;;;;;17.80;8.10;;;1.40;84.60;;;;;;5035649;28;20029;-68
2022/02/23 07:03:11;;;;;;;21.48;6.07;;;1.40;84.70;;;;;;5037073;28;20021;-67
2022/02/23 07:05:37;;;;;;;14.27;5.55;;;1.40;84.50;;;;;;5036935;28;20025;-68
2022/02/23 07:08:06;;;;;;;15.15;4.85;;;1.50;84.60;;;;;;5037054;28;20033;-69
2022/02/23 07:10:32;;;;;;;15.80;4.75;;;1.50;84.20;;;;;;5037727;28;20310;-69
2022/02/23 07:13:00;;;;;;;21.58;8.70;;;1.70;83.70;;;;;;5037960;28;20461;-69
2022/02/23 07:15:26;;;;;;;26.45;9.10;;;1.70;84.40;;;;;;5036158;28;20128;-69
2022/02/23 07:17:52;;;;;;;25.33;8.68;;;1.80;84.20;;;;;;5038621;28;20037;-69
2022/02/23 07:20:18;;;;;;;19.50;7.10;;;1.80;84.20;;;;;;5037814;28;20097;-68
2022/02/23 07:22:45;;;;;;;16.83;6.80;;;1.90;84.20;;;;;;5037725;28;20032;-69
2022/02/23 07:25:12;;;;;;;24.38;7.57;;;1.90;84.20;;;;;;5036121;28;20180;-69
2022/02/23 07:27:38;;;;;;;15.18;5.95;;;1.90;84.10;;;;;;5037866;28;20100;-69
2022/02/23 07:30:09;;;;;;;19.25;7.18;;;2.00;84.00;;;;;;5036866;28;20436;-69
2022/02/23 07:32:34;;;;;;;20.00;5.38;;;2.10;84.10;;;;;;5037743;28;20422;-69
2022/02/23 07:35:02;;;;;;;21.92;7.00;;;2.10;84.10;;;;;;5037451;28;20044;-69
2022/02/23 07:37:28;;;;;;;22.30;6.20;;;2.20;84.00;;;;;;5037440;28;20026;-69
2022/02/23 07:40:06;;;;;;;17.02;4.68;;;2.30;83.90;;;;;;5037414;28;20438;-69
2022/02/23 07:42:32;;;;;;;12.48;3.92;;;2.40;83.70;;;;;;5017091;28;20022;-69
2022/02/23 07:44:58;;;;;;;19.63;4.10;;;2.60;83.80;;;;;;5017546;28;20034;-69
2022/02/23 07:47:23;;;;;;;14.05;4.07;;;2.60;84.60;;;;;;5037107;28;20025;-69
2022/02/23 07:49:50;;;;;;;12.85;4.03;;;2.60;85.10;;;;;;5037609;28;20059;-69
2022/02/23 07:52:19;;;;;;;14.32;4.47;;;2.70;85.10;;;;;;5037384;28;20101;-69
2022/02/23 07:54:46;;;;;;;15.80;5.10;;;2.70;85.40;;;;;;5037100;28;20029;-69
2022/02/23 07:57:12;;;;;;;17.02;6.47;;;2.80;85.20;;;;;;5037157;28;20039;-69
2022/02/23 07:59:38;;;;;;;20.00;6.60;;;2.90;85.50;;;;;;5035942;28;20481;-69
2022/02/23 08:02:04;;;;;;;20.73;8.10;;;3.10;85.70;;;;;;5036875;28;20072;-69
2022/02/23 08:04:29;;;;;;;18.23;5.80;;;3.30;85.60;;;;;;5036998;28;20049;-69
2022/02/23 08:06:59;;;;;;;24.13;7.60;;;3.40;86.30;;;;;;5034288;28;20056;-69
2022/02/23 08:09:25;;;;;;;14.77;4.63;;;3.60;86.30;;;;;;5037239;28;20030;-69
2022/02/23 08:11:51;;;;;;;22.52;4.72;;;3.80;87.10;;;;;;5036804;28;20028;-69
2022/02/23 08:14:17;;;;;;;15.25;3.40;;;4.20;86.60;;;;;;5036032;28;20033;-69
2022/02/23 08:19:36;;;;;;;20.15;4.55;;;4.90;88.70;;;;;;5036753;28;20350;-69
2022/02/23 08:22:13;;;;;;;10.73;2.55;;;5.20;91.20;;;;;;5036713;28;20065;-69
2022/02/23 08:24:44;;;;;;;12.70;2.92;;;5.10;93.10;;;;;;5036718;28;20029;-69
2022/02/23 08:27:16;;;;;;;15.10;3.10;;;4.90;94.50;;;;;;5036415;28;20037;-69
2022/02/23 08:29:46;;;;;;;13.23;3.10;;;5.00;94.90;;;;;;5035782;28;20411;-69
2022/02/23 08:32:16;;;;;;;12.93;3.05;;;5.00;95.40;;;;;;5035652;28;20037;-68
2022/02/23 08:34:44;;;;;;;12.55;3.88;;;5.00;95.70;;;;;;5036554;28;20022;-69
2022/02/23 08:37:10;;;;;;;15.70;3.67;;;5.30;94.90;;;;;;5036137;28;20112;-68
2022/02/23 08:39:36;;;;;;;10.38;2.90;;;5.50;96.80;;;;;;5035564;28;20021;-69
2022/02/23 08:42:07;;;;;;;17.63;3.60;;;5.70;96.20;;;;;;5036450;28;20299;-69
2022/02/23 08:44:33;;;;;;;16.48;3.47;;;6.10;98.00;;;;;;5035158;28;20037;-69
2022/02/23 08:46:59;;;;;;;10.73;2.45;;;6.10;98.00;;;;;;5036033;28;20159;-69
2022/02/23 08:49:25;;;;;;;11.13;2.08;;;6.00;98.00;;;;;;5035912;28;20029;-69
2022/02/23 08:51:50;;;;;;;9.00;2.47;;;5.70;98.00;;;;;;5036120;28;20025;-68
2022/02/23 08:54:18;;;;;;;11.15;3.22;;;5.50;98.00;;;;;;5036329;28;20025;-69
2022/02/23 08:56:45;;;;;;;12.80;4.00;;;5.60;97.70;;;;;;5036601;28;20032;-69
2022/02/23 08:59:14;;;;;;;18.13;8.25;;;5.70;97.60;;;;;;5034831;28;20429;-68
2022/02/23 09:01:39;;;;;;;20.42;8.90;;;5.90;98.00;;;;;;5036012;28;20382;-68
2022/02/23 09:04:05;;;;;;;17.80;9.30;;;6.00;98.00;;;;;;5036100;28;20026;-69
2022/02/23 09:06:36;;;;;;;18.48;7.93;;;6.20;98.00;;;;;;5036250;28;20079;-68
2022/02/23 09:09:03;;;;;;;14.25;4.18;;;6.30;98.00;;;;;;5036047;28;20030;-69
2022/02/23 09:11:29;;;;;;;12.95;2.97;;;6.50;98.00;;;;;;5035876;28;20059;-68
2022/02/23 09:13:54;;;;;;;8.52;1.95;;;7.20;97.00;;;;;;5034641;28;20369;-68
2022/02/23 09:16:20;;;;;;;10.27;2.72;;;9.10;98.00;;;;;;5035910;28;20053;-68
2022/02/23 09:18:46;;;;;;;8.07;2.00;;;10.90;98.00;;;;;;5035326;28;20104;-68
2022/02/23 09:21:11;;;;;;;6.22;1.65;;;11.70;94.00;;;;;;5036166;28;20022;-70
2022/02/23 09:23:37;;;;;;;7.65;2.30;;;12.00;91.20;;;;;;5035733;28;20040;-70
2022/02/23 09:26:07;;;;;;;14.50;4.03;;;12.30;89.00;;;;;;5035906;28;20303;-69
2022/02/23 09:28:34;;;;;;;7.75;2.15;;;12.60;86.30;;;;;;5034330;28;20037;-69
2022/02/23 09:30:59;;;;;;;10.50;2.13;;;12.10;82.60;;;;;;5035816;28;20030;-69
2022/02/23 09:33:25;;;;;;;9.68;2.22;;;11.30;84.10;;;;;;5035777;28;20094;-69
2022/02/23 09:35:51;;;;;;;11.02;2.20;;;10.70;85.00;;;;;;5035874;28;20025;-70
2022/02/23 09:38:18;;;;;;;10.00;1.80;;;9.80;87.70;;;;;;5035733;28;20294;-69
2022/02/23 09:40:57;;;;;;;7.70;2.60;;;8.80;91.50;;;;;;5035654;28;20411;-69
2022/02/23 09:43:23;;;;;;;8.32;1.88;;;8.30;94.00;;;;;;5037283;28;20360;-69
2022/02/23 09:45:54;;;;;;;7.03;2.35;;;8.20;95.40;;;;;;5040068;28;20028;-68
2022/02/23 09:48:21;;;;;;;11.75;2.00;;;8.20;95.90;;;;;;5039259;28;20029;-69
2022/02/23 09:50:47;;;;;;;8.85;2.03;;;8.00;95.10;;;;;;5039769;28;20101;-69
2022/02/23 09:53:15;;;;;;;5.68;1.92;;;7.90;95.30;;;;;;5039682;28;20061;-69
2022/02/23 09:55:44;;;;;;;11.05;2.30;;;7.80;95.60;;;;;;5038404;28;20083;-69
2022/02/23 09:58:10;;;;;;;11.75;2.55;;;7.80;95.60;;;;;;5038162;28;20033;-68
2022/02/23 10:00:37;;;;;;;15.98;6.07;;;8.70;95.20;;;;;;5038505;28;20068;-69
2022/02/23 10:03:05;;;;;;;5.03;1.50;;;10.50;92.20;;;;;;5039164;28;20044;-69
2022/02/23 10:05:41;;;;;;;7.03;1.50;;;12.70;83.40;;;;;;5039587;28;20029;-69
2022/02/23 10:08:11;;;;;;;10.70;1.95;;;13.80;79.00;;;;;;5035229;28;20029;-69
2022/02/23 10:10:39;;;;;;;7.18;1.92;;;13.90;78.70;;;;;;5039020;28;20326;-69
2022/02/23 10:13:07;;;;;;;7.20;2.05;;;14.20;77.80;;;;;;5036976;28;20028;-68
2022/02/23 10:15:43;;;;;;;5.47;1.50;;;14.80;74.60;;;;;;5039022;28;20396;-69
2022/02/23 10:18:12;;;;;;;6.18;1.60;;;15.70;71.60;;;;;;5038911;28;20029;-67
2022/02/23 10:20:40;;;;;;;8.07;1.88;;;14.80;72.50;;;;;;5039317;28;20029;-68
2022/02/23 10:23:26;;;;;;;9.00;1.80;;;14.10;73.80;;;;;;5039151;28;20034;-67
2022/02/23 10:26:01;;;;;;;6.47;1.48;;;14.60;76.50;;;;;;5038669;28;20370;-68
2022/02/23 10:28:32;;;;;;;7.97;1.95;;;14.30;75.10;;;;;;5037868;28;20029;-67
2022/02/23 10:31:03;;;;;;;8.50;2.10;;;13.70;74.60;;;;;;5038979;28;20037;-68
2022/02/23 10:33:33;;;;;;;7.75;1.38;;;13.90;76.20;;;;;;5038540;28;20329;-67
2022/02/23 10:36:16;;;;;;;6.82;1.75;;;13.60;74.70;;;;;;5038374;28;20064;-68
2022/02/23 10:38:44;;;;;;;6.03;1.50;;;13.70;77.40;;;;;;5037676;28;20049;-67
2022/02/23 10:41:30;;;;;;;6.80;1.63;;;13.70;76.90;;;;;;5038954;28;20483;-67
2022/02/23 10:43:55;;;;;;;8.35;1.88;;;13.20;77.40;;;;;;5037053;28;20025;-67
2022/02/23 10:46:23;;;;;;;6.82;1.75;;;13.40;79.70;;;;;;5041275;28;20490;-68
2022/02/23 10:48:50;;;;;;;8.00;1.48;;;13.90;79.00;;;;;;5041649;28;20459;-68
2022/02/23 10:51:29;;;;;;;5.40;1.50;;;14.40;75.80;;;;;;5037436;28;20406;-67
2022/02/23 10:54:06;;;;;;;5.05;1.67;;;14.60;76.10;;;;;;5033946;28;20025;-67
2022/02/23 10:56:40;;;;;;;6.80;1.17;;;14.30;77.10;;;;;;5037650;28;20048;-67
2022/02/23 10:59:15;;;;;;;6.40;1.63;;;14.80;76.10;;;;;;5036559;28;20057;-67
2022/02/23 11:01:43;;;;;;;5.80;1.23;;;14.60;75.60;;;;;;5037068;28;20030;-67
2022/02/23 11:04:09;;;;;;;4.45;1.10;;;14.50;76.20;;;;;;5036041;28;20052;-67
2022/02/23 11:06:37;;;;;;;4.65;1.35;;;14.60;77.00;;;;;;5037303;28;20045;-67
2022/02/23 11:09:04;;;;;;;4.15;1.30;;;13.80;75.70;;;;;;5037788;28;20060;-67
2022/02/23 11:11:31;;;;;;;4.18;1.20;;;12.50;79.10;;;;;;5037090;28;20311;-68
2022/02/23 11:13:58;;;;;;;4.43;1.20;;;12.60;80.70;;;;;;5035606;28;20036;-67
2022/02/23 11:16:25;;;;;;;6.05;1.63;;;13.50;76.90;;;;;;5037633;28;20533;-67
2022/02/23 11:18:52;;;;;;;6.05;2.05;;;14.30;75.80;;;;;;5035763;28;20044;-68
2022/02/23 11:21:19;;;;;;;5.78;2.05;;;14.20;73.90;;;;;;5030297;28;20310;-68
2022/02/23 11:23:52;;;;;;;4.93;1.30;;;14.00;76.00;;;;;;5051395;28;20037;-67
2022/02/23 11:26:20;;;;;;;4.05;1.20;;;14.00;75.60;;;;;;5035662;28;20496;-67
2022/02/23 11:29:05;;;;;;;3.00;1.00;;;13.50;77.60;;;;;;5033807;28;20025;-67
2022/02/23 11:31:40;;;;;;;3.78;1.00;;;14.20;78.10;;;;;;5036446;28;20037;-66
2022/02/23 11:34:07;;;;;;;4.20;1.30;;;14.40;77.00;;;;;;5036950;28;20322;-67
2022/02/23 11:36:46;;;;;;;3.75;1.20;;;14.20;75.30;;;;;;5036267;28;20120;-67
2022/02/23 11:39:22;;;;;;;4.15;1.00;;;14.40;75.20;;;;;;5030660;28;20022;-67
2022/02/23 11:41:54;;;;;;;2.47;1.00;;;15.20;74.00;;;;;;5019659;28;20557;-68
2022/02/23 11:44:32;;;;;;;3.90;1.05;;;15.80;71.20;;;;;;5036213;28;20350;-67
2022/02/23 11:47:13;;;;;;;3.75;1.17;;;16.10;69.90;;;;;;5036684;28;20033;-67
2022/02/23 11:49:53;;;;;;;7.35;2.55;;;16.40;70.00;;;;;;5035715;28;20288;-66
2022/02/23 11:52:24;;;;;;;4.38;1.08;;;17.10;68.50;;;;;;5035707;28;20037;-67
2022/02/23 11:55:11;;;;;;;2.63;1.13;;;17.80;66.80;;;;;;5036462;28;20037;-66
2022/02/23 11:57:49;;;;;;;4.25;1.00;;;18.30;65.20;;;;;;5036823;28;20036;-68
2022/02/23 12:00:25;;;;;;;3.40;1.10;;;17.40;65.70;;;;;;5035185;28;20082;-67
2022/02/23 12:02:59;;;;;;;3.35;1.10;;;16.00;67.80;;;;;;5037087;28;20419;-66
2022/02/23 12:06:06;;;;;;;3.63;1.20;;;14.80;71.00;;;;;;5029965;28;20042;-66
2022/02/23 12:08:31;;;;;;;3.70;1.10;;;13.50;71.70;;;;;;5024609;28;20033;-66
2022/02/23 12:11:13;;;;;;;1.58;0.90;;;12.80;74.20;;;;;;5036748;28;20425;-67
2022/02/23 12:13:56;;;;;;;3.50;1.60;;;12.90;75.50;;;;;;5034823;28;20026;-66
2022/02/23 12:16:33;;;;;;;4.78;1.90;;;12.50;75.40;;;;;;5036051;28;20033;-66
2022/02/23 12:19:01;;;;;;;5.75;1.73;;;11.70;77.90;;;;;;5034899;28;20091;-68
2022/02/23 12:21:41;;;;;;;4.35;1.60;;;11.30;79.60;;;;;;5035695;28;20418;-68
2022/02/23 12:24:10;;;;;;;6.20;1.77;;;11.10;81.00;;;;;;5035380;28;20080;-68
2022/02/23 12:26:36;;;;;;;4.63;1.48;;;11.00;81.90;;;;;;5033710;28;20076;-68
2022/02/23 12:29:05;;;;;;;4.00;1.20;;;11.90;81.50;;;;;;5034022;28;20033;-67
2022/02/23 12:31:33;;;;;;;3.25;1.30;;;13.30;77.90;;;;;;5035643;28;20083;-67
2022/02/23 12:34:05;;;;;;;3.80;1.40;;;14.30;75.30;;;;;;5035221;28;20034;-67
2022/02/23 12:36:42;;;;;;;3.83;1.35;;;14.80;71.80;;;;;;5035184;28;20052;-69
2022/02/23 12:39:12;;;;;;;3.53;1.00;;;15.40;70.40;;;;;;5034094;28;20029;-67
2022/02/23 12:41:38;;;;;;;3.05;1.00;;;16.30;70.30;;;;;;5034070;28;20319;-67
2022/02/23 12:44:14;;;;;;;2.58;1.23;;;16.40;67.10;;;;;;5034249;28;20040;-67
2022/02/23 12:46:52;;;;;;;4.28;1.70;;;15.10;69.80;;;;;;5035472;28;20029;-69
2022/02/23 12:49:26;;;;;;;5.10;2.22;;;13.90;70.90;;;;;;5034274;28;20025;-66
2022/02/23 12:51:53;;;;;;;5.07;2.38;;;12.90;73.90;;;;;;5023876;28;20029;-67
2022/02/23 12:54:25;;;;;;;5.47;2.13;;;12.50;76.00;;;;;;5035001;28;20074;-67
2022/02/23 12:56:57;;;;;;;7.00;2.25;;;12.90;76.40;;;;;;5035033;28;20512;-67